createdAt,value
2017-03-21T00:09:19.489Z,69.6
2017-03-21T00:20:18.528Z,68.9
2017-03-21T00:31:18.677Z,67.1
2017-03-21T00:42:18.691Z,66.2
2017-03-21T00:53:18.518Z,65.9
2017-03-21T01:04:18.118Z,65.1
2017-03-21T01:15:18.220Z,64.9
2017-03-21T01:26:18.526Z,64.2
2017-03-21T01:37:19.088Z,65.7
2017-03-21T01:48:18.805Z,66.5
2017-03-21T01:59:18.587Z,66.7
2017-03-21T02:10:18.472Z,67.6
2017-03-21T02:21:17.791Z,67.3
2017-03-21T02:32:17.711Z,66.7
2017-03-21T02:43:17.704Z,66.4
2017-03-21T02:54:18.279Z,67
2017-03-21T03:05:18.110Z,67.6
2017-03-21T03:16:18.397Z,67.4
2017-03-21T03:27:17.789Z,68.1
2017-03-21T03:38:17.581Z,67.7
2017-03-21T03:49:18.255Z,68
2017-03-21T04:00:18.584Z,67.5
2017-03-21T04:11:18.317Z,68.3
2017-03-21T04:22:18.168Z,68.4
2017-03-21T04:33:17.930Z,68.8
2017-03-21T04:44:18.259Z,68.9
2017-03-21T04:55:18.017Z,68.4
2017-03-21T05:06:18.044Z,68.2
2017-03-21T05:17:19.325Z,68.3
2017-03-21T05:28:18.477Z,69
2017-03-21T05:39:17.815Z,69.5
2017-03-21T05:50:18.762Z,69.8
2017-03-21T06:01:18.097Z,73.8
2017-03-21T06:12:18.152Z,69.9
2017-03-21T06:23:18.525Z,70.5
2017-03-21T06:34:18.054Z,71.1
2017-03-21T06:45:18.667Z,71.1
2017-03-21T06:56:18.768Z,71.4
2017-03-21T07:07:18.442Z,71
2017-03-21T07:18:17.507Z,71.3
2017-03-21T07:29:18.615Z,71
2017-03-21T07:40:18.269Z,71.7
2017-03-21T07:51:17.867Z,71.8
2017-03-21T08:02:19.055Z,71.4
2017-03-21T08:13:18.564Z,72.2
2017-03-21T08:24:18.002Z,72.2
2017-03-21T08:35:18.490Z,71.7
2017-03-21T08:46:18.557Z,72.1
2017-03-21T08:57:18.475Z,72.1
2017-03-21T09:08:18.386Z,72.7
2017-03-21T09:19:18.687Z,72.8
2017-03-21T09:30:18.574Z,73.4
2017-03-21T09:41:18.313Z,72.8
2017-03-21T09:52:18.527Z,73.1
2017-03-21T10:03:17.534Z,73.6
2017-03-21T10:14:17.802Z,73.5
2017-03-21T10:25:18.596Z,73.1
2017-03-21T10:36:18.325Z,72.9
2017-03-21T10:47:18.884Z,73.2
2017-03-21T10:58:18.407Z,73.7
2017-03-21T11:09:18.379Z,73.7
2017-03-21T11:20:18.767Z,73.6
2017-03-21T11:31:18.224Z,73.2
2017-03-21T11:42:18.394Z,73.1
2017-03-21T11:53:18.327Z,73.4
2017-03-21T12:04:18.661Z,73.4
2017-03-21T12:15:18.094Z,74.4
2017-03-21T12:26:18.747Z,73.3
2017-03-21T12:37:19.015Z,74.1
2017-03-21T12:48:18.469Z,74.2
2017-03-21T12:59:18.566Z,74.7
2017-03-21T13:10:18.783Z,74.1
2017-03-21T13:21:18.045Z,74.3
2017-03-21T13:32:17.992Z,74
2017-03-21T13:43:17.687Z,74.6
2017-03-21T13:54:18.518Z,74.9
2017-03-21T14:05:17.941Z,74.7
2017-03-21T14:16:17.965Z,74.9
2017-03-21T14:27:18.002Z,74.6
2017-03-21T14:38:18.206Z,74.1
2017-03-21T14:49:17.683Z,74.2
2017-03-21T15:00:18.637Z,74.3
2017-03-21T15:11:18.637Z,74.8
2017-03-21T15:22:18.522Z,74.8
2017-03-21T15:33:18.209Z,75
2017-03-21T15:44:18.291Z,74.5
2017-03-21T15:55:18.778Z,74.4
2017-03-21T16:06:18.085Z,74.4
2017-03-21T16:17:18.818Z,74.6
2017-03-21T16:28:19.164Z,74.4
2017-03-21T16:39:18.329Z,74.5
2017-03-21T16:50:18.907Z,74.7
2017-03-21T17:01:18.539Z,74.2
2017-03-21T17:12:18.400Z,74.2
2017-03-21T17:23:17.997Z,74.7
2017-03-21T17:34:17.754Z,74.7
2017-03-21T17:45:18.230Z,74.3
2017-03-21T17:56:18.208Z,74.1
2017-03-21T18:07:18.359Z,74.2
2017-03-21T18:18:18.076Z,73.9
2017-03-21T18:29:18.190Z,74.2
2017-03-21T18:40:18.645Z,73.7
2017-03-21T18:51:18.393Z,74
2017-03-21T19:02:17.813Z,74.6
2017-03-21T19:13:17.970Z,74.3
2017-03-21T19:24:18.775Z,74.4
2017-03-21T19:35:18.373Z,76.4
2017-03-21T19:46:18.530Z,77.4
2017-03-21T19:57:17.531Z,78.9
2017-03-21T20:08:18.049Z,79.8
2017-03-21T20:19:18.804Z,79.9
2017-03-21T20:30:18.461Z,80
2017-03-21T20:41:18.173Z,80.2
2017-03-21T20:52:18.244Z,76.6
2017-03-21T21:03:17.719Z,75.8
2017-03-21T21:14:17.955Z,75.1
2017-03-21T21:25:18.207Z,74.3
2017-03-21T21:36:17.833Z,73.4
2017-03-21T21:47:18.648Z,74.7
2017-03-21T21:58:18.036Z,75.9
2017-03-21T22:09:17.671Z,76.6
2017-03-21T22:20:18.878Z,77.1
2017-03-21T22:31:18.092Z,77.4
2017-03-21T22:42:18.338Z,77.4
2017-03-21T22:53:18.466Z,77.7
2017-03-21T23:04:17.569Z,78.2
2017-03-21T23:15:18.280Z,78
2017-03-21T23:26:18.433Z,78.1
2017-03-21T23:37:17.663Z,78.4
2017-03-21T23:48:18.021Z,78.6
2017-03-21T23:59:18.351Z,78.8
